CYXX

Abbotsford Airport

Abbotsford, , Canada
TAF CYXX 241138Z 2412/2512 VRB03KT P6SM SCT040 BKN100 TEMPO 2412/2420 FEW020 BKN030 FM242000 24006KT P6SM FEW030 FM250600 VRB03KT P6SM SCT010 RMK NXT FCST BY 241800Z
Issued Valid From Valid To
Sep-24 @ 11:38 UTC
(2 hours ago)
Sep-24 @ 12:00 UTC
(2 hours ago)
Sep-25 @ 12:00 UTC
(in 22 hours)
Sep-24 @ 12:00 to Sep-24 @ 20:00
TAF CYXX 241138Z 2412/2512 VRB03KT P6SM SCT040 BKN100
Wind Visibility Clouds
Variable at 3 knots Greater than 6 miles
  • Scattered at 4,000' AGL
  • Broken at 10,000' AGL
Temporary Sep-24 @ 12:00 to Sep-24 @ 20:00
TEMPO 2412/2420 FEW020 BKN030
Clouds
  • Few at 2,000' AGL
  • Broken at 3,000' AGL
From Sep-24 @ 20:00 to Sep-25 @ 06:00
FM242000 24006KT P6SM FEW030
Wind Visibility Clouds
240° at 6 knots Greater than 6 miles
  • Few at 3,000' AGL
From Sep-25 @ 06:00 to Sep-25 @ 12:00
FM250600 VRB03KT P6SM SCT010 RMK NXT FCST BY 241800Z
Wind Visibility Clouds
Variable at 3 knots Greater than 6 miles
  • Scattered at 1,000' AGL
TAF CYXX 241138Z 2412/2512 VRB03KT P6SM SCT040 BKN100 TEMPO 2412/2420 FEW020 BKN030 FM242000 24006KT P6SM FEW030 FM250600 VRB03KT P6SM SCT010 RMK NXT FCST BY 241800Z
Issued Sep-24 @ 11:38 UTC
(2 hours ago)
Valid From Sep-24 @ 12:00 UTC
(2 hours ago)
Valid To Sep-25 @ 12:00 UTC
(in 22 hours)
Sep-24 @ 12:00 - Sep-24 @ 20:00
Wind Visibility
Variable at 3 knots Greater than 6 miles
Clouds
  • Scattered at 4,000' AGL
  • Broken at 10,000' AGL
Temporary Sep-24 @ 12:00 - Sep-24 @ 20:00
Clouds
  • Few at 2,000' AGL
  • Broken at 3,000' AGL
From Sep-24 @ 20:00 - Sep-25 @ 06:00
Wind Visibility
240° at 6 knots Greater than 6 miles
Clouds
  • Few at 3,000' AGL
From Sep-25 @ 06:00 - Sep-25 @ 12:00
Wind Visibility
Variable at 3 knots Greater than 6 miles
Clouds
  • Scattered at 1,000' AGL